Time;durP1;ratioP1;P1;durP2;ratioP2;P2;SDS_P1;SDS_P2;PMS_P1;PMS_P2;Temp;Humidity;BMP_temperature;BMP_pressure;BME280_temperature;BME280_humidity;BME280_pressure;Samples;Min_cycle;Max_cycle;Signal;HPM_P1;HPM_P2
2021/12/02 00:01:39;;;;;;;8.38;5.35;;;;;;;0.34;100.00;62036.31;5063532;28;20201;-79
2021/12/02 00:04:06;;;;;;;6.82;4.43;;;;;;;0.43;100.00;62040.03;5066152;28;20240;-80
2021/12/02 00:06:33;;;;;;;6.50;4.93;;;;;;;0.41;100.00;62041.00;5065978;28;20502;-80
2021/12/02 00:09:01;;;;;;;6.65;5.28;;;;;;;0.37;100.00;62041.38;5066849;28;20217;-79
2021/12/02 00:11:29;;;;;;;6.32;5.03;;;;;;;0.36;100.00;62037.88;5063009;28;20202;-79
2021/12/02 00:13:59;;;;;;;6.95;5.28;;;;;;;0.36;100.00;62030.34;5066035;28;20213;-81
2021/12/02 00:16:32;;;;;;;10.43;4.93;;;;;;;0.37;100.00;62041.91;5076128;28;20255;-79
2021/12/02 00:21:50;;;;;;;7.63;5.82;;;;;;;0.27;100.00;62023.63;5058583;28;20532;-80
2021/12/02 00:24:22;;;;;;;8.60;5.80;;;;;;;0.34;100.00;62038.31;5059865;28;20288;-80
2021/12/02 00:26:50;;;;;;;11.65;6.22;;;;;;;0.35;100.00;62037.34;5064497;28;20201;-78
2021/12/02 00:29:19;;;;;;;10.07;5.82;;;;;;;0.30;100.00;62029.72;5077134;28;20482;-81
2021/12/02 00:31:48;;;;;;;6.75;4.93;;;;;;;0.28;100.00;62027.66;5069426;28;20549;-78
2021/12/02 00:34:15;;;;;;;7.47;5.20;;;;;;;0.20;100.00;62018.94;5062211;28;20217;-79
2021/12/02 00:36:43;;;;;;;9.63;5.95;;;;;;;0.31;100.00;62035.25;5065762;28;20250;-79
2021/12/02 00:39:12;;;;;;;9.10;6.00;;;;;;;0.19;100.00;62025.44;5068954;28;20220;-79
2021/12/02 00:41:40;;;;;;;9.85;6.45;;;;;;;0.17;100.00;62016.41;5064716;28;20539;-79
2021/12/02 00:44:08;;;;;;;13.73;7.68;;;;;;;0.10;100.00;62008.72;5056897;28;20549;-78
2021/12/02 00:46:36;;;;;;;10.98;7.85;;;;;;;0.22;100.00;62023.50;5060792;28;20213;-79
2021/12/02 00:49:06;;;;;;;11.52;7.60;;;;;;;0.37;100.00;62036.38;5063771;28;20217;-79
2021/12/02 00:51:35;;;;;;;11.23;7.13;;;;;;;0.26;100.00;62030.13;5066809;28;20500;-79
2021/12/02 00:54:04;;;;;;;10.57;7.18;;;;;;;0.07;100.00;62003.63;5070336;28;20243;-81
2021/12/02 00:56:31;;;;;;;9.38;7.00;;;;;;;-0.01;100.00;61997.94;5065532;28;20243;-78
2021/12/02 00:59:00;;;;;;;9.40;6.10;;;;;;;-0.08;100.00;61993.78;5078064;28;20223;-78
2021/12/02 01:01:33;;;;;;;9.52;6.75;;;;;;;-0.04;100.00;61997.38;5070394;28;20213;-78
2021/12/02 01:04:03;;;;;;;8.25;6.15;;;;;;;-0.06;100.00;62000.31;5067179;28;20444;-78
2021/12/02 01:06:29;;;;;;;9.15;6.22;;;;;;;-0.07;100.00;61991.81;5063824;28;20205;-79
2021/12/02 01:08:56;;;;;;;12.43;6.93;;;;;;;-0.02;100.00;61997.44;5064639;28;20423;-78
2021/12/02 01:11:23;;;;;;;12.93;7.38;;;;;;;-0.05;100.00;61993.84;5064776;28;20200;-79
2021/12/02 01:13:51;;;;;;;9.73;7.15;;;;;;;-0.03;100.00;61998.91;5058927;28;20221;-78
2021/12/02 01:16:20;;;;;;;8.20;5.88;;;;;;;0.07;100.00;62003.13;5063635;28;20194;-79
2021/12/02 01:18:47;;;;;;;7.68;5.10;;;;;;;0.04;100.00;62005.56;5065162;28;20645;-79
2021/12/02 01:21:16;;;;;;;6.78;4.93;;;;;;;0.02;100.00;62001.00;5075174;28;20201;-79
2021/12/02 01:23:44;;;;;;;10.68;5.43;;;;;;;-0.05;100.00;61993.84;5059216;28;20243;-79
2021/12/02 01:26:16;;;;;;;6.50;4.75;;;;;;;-0.03;100.00;61995.91;5064241;28;20205;-79
2021/12/02 01:28:44;;;;;;;5.65;4.95;;;;;;;-0.10;100.00;61996.75;5077826;28;20216;-78
2021/12/02 01:31:12;;;;;;;5.88;4.90;;;;;;;-0.11;100.00;61985.72;5057673;28;20371;-78
2021/12/02 01:33:44;;;;;;;5.10;3.53;;;;;;;-0.17;100.00;61981.53;5057830;28;20518;-79
2021/12/02 01:36:11;;;;;;;5.57;5.07;;;;;;;-0.25;100.00;61975.84;5063835;28;20205;-79
2021/12/02 01:38:38;;;;;;;7.80;5.05;;;;;;;-0.27;100.00;61971.81;5068366;28;20287;-77
2021/12/02 01:41:06;;;;;;;11.57;6.72;;;;;;;-0.19;100.00;61982.00;5063370;28;20808;-78
2021/12/02 01:43:49;;;;;;;8.38;6.10;;;;;;;-0.23;100.00;61975.41;5062222;28;20324;-79
2021/12/02 01:46:17;;;;;;;9.80;6.70;;;;;;;-0.26;100.00;61974.84;5061812;28;20276;-78
2021/12/02 01:48:49;;;;;;;8.95;6.45;;;;;;;-0.26;100.00;61969.84;5063109;28;20225;-79
2021/12/02 01:51:19;;;;;;;7.72;5.57;;;;;;;-0.24;100.00;61977.41;5062714;28;20201;-79
2021/12/02 01:53:51;;;;;;;9.20;5.93;;;;;;;-0.18;100.00;61981.03;5058164;28;20221;-79
2021/12/02 01:56:20;;;;;;;9.60;6.35;;;;;;;-0.18;100.00;61978.03;5063019;28;20405;-78
2021/12/02 01:58:50;;;;;;;8.20;5.50;;;;;;;-0.21;100.00;61977.47;5060584;28;20221;-78
2021/12/02 02:01:21;;;;;;;9.63;5.70;;;;;;;-0.30;100.00;61968.25;5063073;28;20205;-78
2021/12/02 02:03:50;;;;;;;10.68;7.13;;;;;;;-0.30;100.00;61968.25;5066197;28;20416;-77
2021/12/02 02:06:27;;;;;;;11.90;5.93;;;;;;;-0.46;100.00;61951.84;5066754;28;20544;-79
2021/12/02 02:08:57;;;;;;;8.23;5.30;;;;;;;-0.47;100.00;61953.84;5060361;28;20237;-79
2021/12/02 02:11:26;;;;;;;9.40;6.20;;;;;;;-0.48;100.00;61952.81;5066130;28;20509;-77
2021/12/02 02:13:53;;;;;;;10.75;6.13;;;;;;;-0.49;100.00;61953.78;5064690;28;20241;-77
2021/12/02 02:16:20;;;;;;;8.70;7.07;;;;;;;-0.37;100.00;61963.56;5065872;28;20257;-77
2021/12/02 02:18:47;;;;;;;10.13;6.88;;;;;;;-0.49;100.00;61951.28;5065914;28;20225;-77
2021/12/02 02:21:17;;;;;;;9.35;7.13;;;;;;;-0.47;100.00;61951.34;5062085;28;20201;-79
2021/12/02 02:23:49;;;;;;;6.55;5.60;;;;;;;-0.41;100.00;61957.47;5061345;28;20233;-78
2021/12/02 02:26:22;;;;;;;8.57;5.78;;;;;;;-0.39;100.00;61961.50;5066699;28;20382;-78
2021/12/02 02:28:49;;;;;;;12.38;5.70;;;;;;;-0.37;100.00;61961.06;5086248;28;20280;-79
2021/12/02 02:31:16;;;;;;;7.80;5.55;;;;;;;-0.42;100.00;61955.94;5086176;28;20204;-79
2021/12/02 02:33:45;;;;;;;8.20;4.68;;;;;;;-0.38;100.00;61963.03;5067800;28;20416;-78
2021/12/02 02:36:12;;;;;;;7.07;5.30;;;;;;;-0.27;100.00;61974.31;5073256;28;20459;-80
2021/12/02 02:38:40;;;;;;;7.43;4.70;;;;;;;-0.25;100.00;61975.84;5065703;28;20225;-78
2021/12/02 02:41:11;;;;;;;7.50;5.38;;;;;;;-0.32;100.00;61971.69;5063372;28;20222;-77
2021/12/02 02:43:38;;;;;;;5.05;4.13;;;;;;;-0.25;100.00;61975.84;5061102;28;20253;-78
2021/12/02 02:46:04;;;;;;;5.28;4.15;;;;;;;-0.29;100.00;61974.78;5074019;28;20209;-78
2021/12/02 02:48:31;;;;;;;5.03;4.47;;;;;;;-0.58;100.00;61940.06;5065543;28;20270;-78
2021/12/02 02:50:58;;;;;;;7.03;5.78;;;;;;;-0.61;100.00;61938.97;5065323;28;20243;-78
2021/12/02 02:53:26;;;;;;;13.25;6.03;;;;;;;-0.59;100.00;61941.03;5060030;28;20228;-78
2021/12/02 02:56:06;;;;;;;8.68;6.50;;;;;;;-0.61;100.00;61939.50;5066164;28;20204;-78
2021/12/02 02:58:46;;;;;;;9.18;4.90;;;;;;;-0.47;100.00;61953.84;5060790;28;20249;-78
2021/12/02 03:01:26;;;;;;;6.55;5.30;;;;;;;-0.41;100.00;61959.97;5066365;28;20209;-78
2021/12/02 03:04:02;;;;;;;6.35;5.50;;;;;;;-0.41;100.00;61957.47;5065254;28;20236;-78
2021/12/02 03:06:35;;;;;;;8.15;6.53;;;;;;;-0.38;100.00;61963.03;5066062;28;20209;-78
2021/12/02 03:09:05;;;;;;;9.68;5.30;;;;;;;-0.46;100.00;61954.34;5055390;28;20228;-77
2021/12/02 03:11:40;;;;;;;6.93;6.15;;;;;;;-0.46;100.00;61954.34;5065223;28;20426;-78
2021/12/02 03:14:12;;;;;;;5.57;4.43;;;;;;;-0.58;100.00;61942.06;5070629;28;20228;-79
2021/12/02 03:16:44;;;;;;;5.05;3.42;;;;;;;-0.64;100.00;61933.41;5070134;28;20257;-78
2021/12/02 03:19:12;;;;;;;5.95;3.00;;;;;;;-0.64;100.00;61933.41;5061783;28;20490;-78
2021/12/02 03:21:39;;;;;;;2.70;2.08;;;;;;;-0.65;100.00;61930.41;5074016;28;20235;-79
2021/12/02 03:24:07;;;;;;;4.57;2.83;;;;;;;-0.60;100.00;61940.53;5064731;28;20241;-78
2021/12/02 03:26:35;;;;;;;4.45;3.15;;;;;;;-0.58;100.00;61940.06;5077518;28;20577;-77
2021/12/02 03:29:03;;;;;;;4.30;3.85;;;;;;;-0.57;100.00;61943.59;5065374;28;20225;-77
2021/12/02 03:31:30;;;;;;;6.00;4.65;;;;;;;-0.59;100.00;61936.03;5056160;28;20203;-78
2021/12/02 03:33:57;;;;;;;4.18;3.40;;;;;;;-0.50;100.00;61947.75;5064959;28;20228;-78
2021/12/02 03:36:24;;;;;;;8.27;5.30;;;;;;;-0.51;100.00;61946.72;5065250;28;20205;-78
2021/12/02 03:38:51;;;;;;;12.13;5.75;;;;;;;-0.53;100.00;61952.69;5064718;28;20271;-79
2021/12/02 03:41:18;;;;;;;13.10;5.70;;;;;;;-0.53;100.00;61949.66;5059507;28;20239;-78
2021/12/02 03:43:48;;;;;;;8.10;5.57;;;;;;;-0.61;100.00;61936.47;5064980;28;20240;-78
2021/12/02 03:46:17;;;;;;;10.50;6.70;;;;;;;-0.58;100.00;61940.06;5064477;28;20242;-77
2021/12/02 03:48:45;;;;;;;8.27;6.47;;;;;;;-0.61;100.00;61939.50;5062534;28;20225;-77
2021/12/02 03:51:12;;;;;;;7.60;6.03;;;;;;;-0.60;100.00;61937.50;5062051;28;20206;-78
2021/12/02 03:53:40;;;;;;;5.82;4.95;;;;;;;-0.45;100.00;61953.38;5063763;28;20229;-77
2021/12/02 03:56:07;;;;;;;6.40;3.75;;;;;;;-0.39;100.00;61962.03;5064172;28;20251;-78
2021/12/02 03:58:35;;;;;;;4.47;3.55;;;;;;;-0.39;100.00;61959.53;5057926;28;20218;-78
2021/12/02 04:01:04;;;;;;;6.22;4.18;;;;;;;-0.43;100.00;61954.94;5064646;28;20380;-79
2021/12/02 04:03:31;;;;;;;5.97;4.07;;;;;;;-0.42;100.00;61958.97;5065217;28;20236;-79
2021/12/02 04:05:58;;;;;;;8.10;2.72;;;;;;;-0.34;100.00;61961.63;5079692;28;20211;-78
2021/12/02 04:08:29;;;;;;;2.67;2.47;;;;;;;-0.25;100.00;61978.88;5065109;28;20224;-78
2021/12/02 04:11:10;;;;;;;3.22;2.95;;;;;;;-0.20;100.00;61985.97;5054402;28;20201;-78
2021/12/02 04:13:41;;;;;;;2.20;2.10;;;;;;;-0.12;100.00;61987.19;5064050;28;20564;-79
2021/12/02 04:16:15;;;;;;;2.50;2.28;;;;;;;-0.02;100.00;62002.44;5062712;28;20252;-78
2021/12/02 04:18:41;;;;;;;2.95;2.47;;;;;;;-0.33;100.00;61970.16;5060273;28;20263;-78
2021/12/02 04:21:08;;;;;;;6.30;3.83;;;;;;;-0.38;100.00;61965.06;5064881;28;20474;-78
2021/12/02 04:23:35;;;;;;;14.90;7.95;;;;;;;-0.38;100.00;61957.53;5059408;28;20232;-79
2021/12/02 04:26:02;;;;;;;27.80;11.70;;;;;;;-0.33;100.00;61965.66;5065733;28;20213;-79
2021/12/02 04:28:29;;;;;;;12.80;7.07;;;;;;;-0.19;100.00;61984.50;5077399;28;20225;-78
2021/12/02 04:30:56;;;;;;;14.23;7.28;;;;;;;-0.28;100.00;61975.81;5064382;28;20306;-78
2021/12/02 04:33:24;;;;;;;13.32;7.00;;;;;;;-0.19;100.00;61982.50;5059186;28;20256;-78
2021/12/02 04:35:52;;;;;;;15.90;8.15;;;;;;;0.06;100.00;62002.63;5067137;28;20205;-78
2021/12/02 04:38:19;;;;;;;10.00;6.32;;;;;;;-0.07;100.00;61999.81;5072450;28;20224;-77
2021/12/02 04:40:46;;;;;;;11.18;6.20;;;;;;;-0.10;100.00;61986.22;5061197;28;20212;-79
2021/12/02 04:43:13;;;;;;;11.90;7.68;;;;;;;-0.09;100.00;61990.25;5058289;28;20214;-77
2021/12/02 04:45:40;;;;;;;22.27;9.80;;;;;;;0.05;100.00;62009.09;5061122;28;20435;-78
2021/12/02 04:48:08;;;;;;;18.25;10.60;;;;;;;0.02;100.00;61998.00;5064730;28;20236;-77
2021/12/02 04:50:36;;;;;;;28.27;16.20;;;;;;;0.17;100.00;62015.88;5064196;28;20209;-78
2021/12/02 04:53:03;;;;;;;14.15;7.32;;;;;;;0.16;100.00;62019.84;5063383;28;20221;-78
2021/12/02 04:55:30;;;;;;;12.32;6.38;;;;;;;0.18;100.00;62016.91;5049824;28;20201;-78
2021/12/02 04:58:05;;;;;;;12.68;7.47;;;;;;;0.13;100.00;62017.31;5061264;28;20538;-78
2021/12/02 05:00:32;;;;;;;6.22;5.43;;;;;;;0.17;100.00;62018.91;5063489;28;20563;-80
2021/12/02 05:02:59;;;;;;;6.32;5.40;;;;;;;0.18;100.00;62019.91;5064037;28;20592;-78
2021/12/02 05:05:26;;;;;;;8.18;6.15;;;;;;;0.18;100.00;62017.41;5057523;28;20236;-78
2021/12/02 05:07:54;;;;;;;7.82;4.95;;;;;;;0.16;100.00;62017.34;5061309;28;20271;-78
2021/12/02 05:10:22;;;;;;;9.43;4.80;;;;;;;-0.01;100.00;62000.44;5064463;28;20516;-77
2021/12/02 05:12:50;;;;;;;6.90;4.68;;;;;;;-0.09;100.00;61989.75;5064287;28;20245;-79
2021/12/02 05:15:17;;;;;;;7.50;5.88;;;;;;;-0.08;100.00;61993.78;5063440;28;20316;-78
2021/12/02 05:17:44;;;;;;;8.50;4.88;;;;;;;0.08;100.00;62006.66;5056029;28;20263;-77
2021/12/02 05:20:11;;;;;;;6.72;4.97;;;;;;;0.00;100.00;62001.47;5057501;28;20266;-78
2021/12/02 05:22:38;;;;;;;10.27;4.82;;;;;;;0.05;100.00;62011.63;5056587;28;20257;-78
2021/12/02 05:25:09;;;;;;;6.45;4.70;;;;;;;0.11;100.00;62012.75;5062939;28;20233;-77
2021/12/02 05:27:35;;;;;;;6.68;4.95;;;;;;;0.14;100.00;62015.31;5056295;28;20217;-79
2021/12/02 05:30:04;;;;;;;8.15;5.25;;;;;;;0.09;100.00;62008.19;5060533;28;20417;-78
2021/12/02 05:32:31;;;;;;;5.50;4.82;;;;;;;0.05;100.00;62009.09;5063882;28;20229;-78
2021/12/02 05:34:58;;;;;;;5.80;4.40;;;;;;;0.06;100.00;62004.59;5063110;28;20208;-78
2021/12/02 05:37:25;;;;;;;8.05;4.45;;;;;;;0.12;100.00;62015.75;5061439;28;20559;-78
2021/12/02 05:39:52;;;;;;;8.45;4.65;;;;;;;0.17;100.00;62018.38;5067501;28;20220;-78
2021/12/02 05:42:20;;;;;;;6.55;4.70;;;;;;;0.30;100.00;62032.22;5066604;28;20256;-77
2021/12/02 05:44:47;;;;;;;9.02;4.75;;;;;;;0.27;100.00;62028.63;5066091;28;20233;-78
2021/12/02 05:47:14;;;;;;;7.57;4.35;;;;;;;0.28;100.00;62027.16;5054602;28;20498;-79
2021/12/02 05:49:41;;;;;;;8.07;5.63;;;;;;;0.15;100.00;62009.34;5070842;28;20209;-78
2021/12/02 05:52:09;;;;;;;9.95;5.57;;;;;;;0.20;100.00;62021.97;5066896;28;20205;-77
2021/12/02 05:54:35;;;;;;;6.90;4.70;;;;;;;0.09;100.00;62007.69;5068498;28;20232;-79
2021/12/02 05:57:03;;;;;;;7.43;5.00;;;;;;;0.25;100.00;62021.56;5062351;28;20212;-77
2021/12/02 05:59:31;;;;;;;8.07;4.88;;;;;;;0.16;100.00;62012.88;5064122;28;20239;-77
2021/12/02 06:01:58;;;;;;;6.43;4.72;;;;;;;0.12;100.00;62015.75;5069841;28;20239;-78
2021/12/02 06:04:25;;;;;;;12.60;5.05;;;;;;;0.21;100.00;62023.00;5071061;28;20237;-77
2021/12/02 06:06:51;;;;;;;7.00;4.93;;;;;;;0.23;100.00;62022.53;5063668;28;20204;-78
2021/12/02 06:09:19;;;;;;;10.15;5.28;;;;;;;0.31;100.00;62032.75;5062685;28;20245;-78
2021/12/02 06:11:46;;;;;;;11.15;4.82;;;;;;;0.27;100.00;62026.66;5064618;28;20212;-78
2021/12/02 06:14:14;;;;;;;6.70;4.65;;;;;;;0.28;100.00;62027.66;5064496;28;20232;-78
2021/12/02 06:16:42;;;;;;;6.35;4.78;;;;;;;0.35;100.00;62029.84;5063276;28;20200;-79
2021/12/02 06:19:09;;;;;;;8.20;4.75;;;;;;;0.36;100.00;62033.38;5060893;28;20731;-78
2021/12/02 06:21:37;;;;;;;8.35;5.40;;;;;;;0.54;100.00;62051.81;5065525;28;20520;-78
2021/12/02 06:24:05;;;;;;;10.00;5.65;;;;;;;0.49;100.00;62048.69;5077967;28;20287;-79
2021/12/02 06:26:32;;;;;;;6.13;4.88;;;;;;;0.53;100.00;62055.28;5066425;28;20197;-78
2021/12/02 06:28:59;;;;;;;7.13;4.53;;;;;;;0.52;100.00;62052.25;5068608;28;20415;-79
2021/12/02 06:31:27;;;;;;;11.40;7.28;;;;;;;0.60;100.00;62062.47;5053385;28;20216;-77
2021/12/02 06:33:55;;;;;;;11.32;6.25;;;;;;;0.57;100.00;62057.38;5066006;28;20468;-78
2021/12/02 06:36:22;;;;;;;8.23;5.07;;;;;;;0.72;100.00;62074.78;5066119;28;20201;-77
2021/12/02 06:38:49;;;;;;;6.53;4.65;;;;;;;0.78;100.00;62081.44;5064966;28;20225;-78
2021/12/02 06:41:18;;;;;;;14.05;8.23;;;;;;;0.83;100.00;62084.06;5063867;28;20204;-79
2021/12/02 06:43:45;;;;;;;12.43;7.15;;;;;;;0.90;100.00;62091.22;5065679;28;20256;-79
2021/12/02 06:46:12;;;;;;;8.07;6.57;;;;;;;0.96;100.00;62099.91;5064215;28;20285;-80
2021/12/02 06:48:39;;;;;;;12.75;8.50;;;;;;;1.08;100.00;62109.72;5063974;28;20233;-80
2021/12/02 06:51:09;;;;;;;11.55;7.13;;;;;;;1.17;100.00;62118.94;5069490;28;20189;-79
2021/12/02 06:53:36;;;;;;;6.22;4.38;;;;;;;1.25;100.00;62128.63;5066198;28;20413;-80
2021/12/02 06:56:03;;;;;;;5.45;4.35;;;;;;;1.34;100.00;62137.84;5066807;28;20216;-80
2021/12/02 06:58:30;;;;;;;7.25;4.55;;;;;;;1.43;100.00;62147.63;5061742;28;20280;-80
2021/12/02 07:00:57;;;;;;;13.20;10.75;;;;;;;1.60;100.00;62162.53;5065136;28;20258;-80
2021/12/02 07:03:24;;;;;;;9.30;6.28;;;;;;;1.95;100.00;62200.47;5061706;28;20222;-81
2021/12/02 07:05:50;;;;;;;6.57;4.30;;;;;;;2.18;100.00;62221.56;5067663;28;20232;-80
2021/12/02 07:08:20;;;;;;;4.53;4.03;;;;;;;2.20;100.00;62223.63;5064211;28;20221;-80
2021/12/02 07:10:46;;;;;;;10.80;9.52;;;;;;;2.18;100.00;62224.59;5066019;28;20513;-79
2021/12/02 07:13:13;;;;;;;6.63;4.85;;;;;;;2.15;100.00;62219.00;5064559;28;20602;-79
2021/12/02 07:15:44;;;;;;;5.15;4.60;;;;;;;2.10;100.00;62213.88;5066252;28;20200;-79
2021/12/02 07:18:13;;;;;;;6.18;4.22;;;;;;;2.06;100.00;62209.25;5065713;28;20259;-78
2021/12/02 07:20:42;;;;;;;6.65;4.80;;;;;;;1.96;100.00;62197.00;5063695;28;20205;-78
2021/12/02 07:23:08;;;;;;;7.35;4.55;;;;;;;1.82;100.00;62179.59;5066741;28;20217;-80
2021/12/02 07:25:40;;;;;;;8.05;5.47;;;;;;;1.73;100.00;62177.88;5063694;28;20306;-80
2021/12/02 07:28:08;;;;;;;5.80;4.50;;;;;;;1.73;100.00;62173.38;5064609;28;20545;-77
2021/12/02 07:30:35;;;;;;;30.25;18.88;;;;;;;1.85;100.00;62182.66;5059808;28;20202;-79
2021/12/02 07:33:04;;;;;;;9.73;5.28;;;;;;;1.85;100.00;62188.19;5057733;28;20214;-78
2021/12/02 07:35:31;;;;;;;4.88;3.72;;;;;;;1.85;100.00;62190.72;5064846;28;20284;-79
2021/12/02 07:38:00;;;;;;;5.18;4.35;;;;;;;1.95;100.00;62203.47;5069488;28;20269;-79
2021/12/02 07:40:30;;;;;;;7.97;4.20;;;;;;;1.98;100.00;62201.03;5069251;28;20235;-77
2021/12/02 07:42:59;;;;;;;7.78;4.38;;;;;;;2.04;100.00;62210.22;5053821;28;20237;-77
2021/12/02 07:45:31;;;;;;;7.05;4.25;;;;;;;2.09;100.00;62214.84;5061195;28;20233;-79
2021/12/02 07:47:58;;;;;;;9.23;5.03;;;;;;;2.24;100.00;62227.75;5063131;28;20244;-77
2021/12/02 07:50:25;;;;;;;5.13;4.13;;;;;;;2.32;100.00;62238.97;5061037;28;20392;-78
2021/12/02 07:52:55;;;;;;;11.13;4.30;;;;;;;2.40;100.00;62244.16;5054895;28;20225;-78
2021/12/02 07:55:24;;;;;;;6.40;4.13;;;;;;;2.47;100.00;62248.84;5064385;28;20205;-78
2021/12/02 07:57:51;;;;;;;8.93;4.43;;;;;;;2.57;100.00;62263.63;5064321;28;20275;-79
2021/12/02 08:00:22;;;;;;;5.57;4.10;;;;;;;2.64;100.00;62270.81;5065050;28;20205;-79
2021/12/02 08:02:51;;;;;;;7.63;5.50;;;;;;;2.70;100.00;62271.94;5057367;28;20239;-79
2021/12/02 08:05:18;;;;;;;8.40;5.15;;;;;;;2.73;100.00;62283.09;5064585;28;20453;-79
2021/12/02 08:07:45;;;;;;;9.25;5.20;;;;;;;2.78;100.00;62288.22;5064741;28;20248;-77
2021/12/02 08:10:14;;;;;;;12.43;6.82;;;;;;;2.82;100.00;62286.78;5061482;28;20521;-79
2021/12/02 08:12:47;;;;;;;11.15;6.65;;;;;;;2.89;100.00;62297.03;5061368;28;20221;-78
2021/12/02 08:15:15;;;;;;;6.65;5.30;;;;;;;3.06;100.00;62311.97;5056476;28;20267;-78
2021/12/02 08:17:43;;;;;;;7.15;4.72;;;;;;;3.23;100.00;62328.94;5064674;28;20220;-78
2021/12/02 08:20:11;;;;;;;7.68;5.25;;;;;;;3.36;100.00;62347.34;5062486;28;20205;-78
2021/12/02 08:22:38;;;;;;;8.02;4.32;;;;;;;3.41;100.00;62353.00;5055929;28;20221;-79
2021/12/02 08:25:06;;;;;;;6.57;4.65;;;;;;;3.53;100.00;62359.78;5063287;28;20575;-78
2021/12/02 08:27:33;;;;;;;5.05;4.47;;;;;;;3.57;100.00;62368.94;5065682;28;20580;-79
2021/12/02 08:30:02;;;;;;;15.27;7.95;;;;;;;3.63;100.00;62374.56;5065041;28;20209;-79
2021/12/02 08:32:29;;;;;;;14.10;6.22;;;;;;;3.76;100.00;62387.97;5063246;28;20233;-79
2021/12/02 08:34:59;;;;;;;19.50;12.73;;;;;;;3.94;100.00;62403.94;5062978;28;20209;-79
2021/12/02 08:37:29;;;;;;;9.20;5.40;;;;;;;3.91;100.00;62401.38;5061246;28;20296;-79
2021/12/02 08:39:58;;;;;;;16.83;6.38;;;;;;;4.11;100.00;62418.91;5067943;28;20201;-79
2021/12/02 08:42:25;;;;;;;7.65;5.60;;;;;;;4.23;100.00;62436.81;5061606;28;20233;-78
2021/12/02 08:44:53;;;;;;;10.77;5.32;;;;;;;4.36;100.00;62444.66;5061060;28;20227;-79
2021/12/02 08:47:22;;;;;;;5.22;4.72;;;;;;;4.41;100.00;62452.31;5066048;28;20225;-79
2021/12/02 08:49:52;;;;;;;6.10;4.18;;;;;;;4.53;100.00;62462.66;5065238;28;20203;-80
2021/12/02 08:52:21;;;;;;;5.68;5.07;;;;;;;4.58;100.00;62469.81;5066744;28;20197;-81
2021/12/02 08:54:48;;;;;;;4.95;4.30;;;;;;;4.54;97.20;62468.72;5061241;28;20265;-79
2021/12/02 08:57:15;;;;;;;6.95;5.10;;;;;;;4.64;97.44;62476.00;5057709;28;20217;-79
2021/12/02 08:59:43;;;;;;;10.80;5.10;;;;;;;4.61;96.61;62470.88;5064630;28;20247;-78
2021/12/02 09:02:11;;;;;;;5.30;3.58;;;;;;;4.69;97.48;62484.16;5065547;28;20198;-79
2021/12/02 09:04:38;;;;;;;6.07;3.83;;;;;;;4.80;96.81;62491.94;5063205;28;20198;-79
2021/12/02 09:07:06;;;;;;;4.40;4.00;;;;;;;4.68;93.78;62477.56;5061665;28;20362;-78
2021/12/02 09:09:35;;;;;;;6.75;5.05;;;;;;;4.63;95.01;62474.94;5065200;28;20201;-80
2021/12/02 09:12:02;;;;;;;6.50;4.28;;;;;;;4.51;92.83;62460.59;5065377;28;20197;-78
2021/12/02 09:14:29;;;;;;;6.55;5.45;;;;;;;4.66;97.31;62478.56;5065753;28;20227;-79
2021/12/02 09:16:57;;;;;;;4.57;4.18;;;;;;;4.76;94.47;62485.81;5066527;28;20385;-79
2021/12/02 09:19:24;;;;;;;5.60;4.00;;;;;;;4.84;93.92;62496.56;5066257;28;20463;-80
2021/12/02 09:21:51;;;;;;;6.38;3.88;;;;;;;4.82;95.26;62494.50;5071798;28;20263;-79
2021/12/02 09:24:19;;;;;;;5.00;4.53;;;;;;;4.81;96.15;62490.97;5064693;28;20217;-80
2021/12/02 09:26:48;;;;;;;6.18;5.38;;;;;;;4.88;95.45;62505.75;5077008;28;20228;-78
2021/12/02 09:29:16;;;;;;;6.68;6.00;;;;;;;4.82;92.90;62489.47;5069672;28;20217;-79
2021/12/02 09:31:43;;;;;;;7.15;4.90;;;;;;;5.06;93.81;62519.22;5066043;28;20271;-80
2021/12/02 09:34:10;;;;;;;13.23;7.20;;;;;;;5.08;93.45;62518.75;5065927;28;20213;-78
2021/12/02 09:36:37;;;;;;;8.55;6.13;;;;;;;5.16;93.05;62529.50;5067916;28;20205;-78
2021/12/02 09:39:05;;;;;;;7.40;5.53;;;;;;;5.27;95.03;62535.28;5065503;28;20221;-79
2021/12/02 09:41:33;;;;;;;7.05;6.32;;;;;;;5.31;92.20;62550.03;5065863;28;20288;-79
2021/12/02 09:44:02;;;;;;;10.55;6.43;;;;;;;5.43;92.41;62554.81;5064923;28;20233;-79
2021/12/02 09:46:29;;;;;;;12.45;6.63;;;;;;;5.47;91.54;62561.44;5065259;28;20263;-79
2021/12/02 09:48:57;;;;;;;9.07;6.07;;;;;;;5.53;92.59;62567.63;5062676;28;20271;-79
2021/12/02 09:51:27;;;;;;;6.43;5.82;;;;;;;5.67;92.80;62582.06;5063761;28;20205;-79
2021/12/02 09:53:56;;;;;;;5.15;4.38;;;;;;;5.76;89.79;62590.81;5055571;28;20225;-80
2021/12/02 09:56:27;;;;;;;5.15;4.55;;;;;;;5.82;89.19;62597.53;5064149;28;20224;-79
2021/12/02 09:58:58;;;;;;;8.88;5.60;;;;;;;5.90;88.56;62607.78;5051366;28;20527;-79
2021/12/02 10:01:35;;;;;;;7.90;4.55;;;;;;;6.03;90.47;62613.59;5059357;28;20197;-78
2021/12/02 10:04:04;;;;;;;7.65;4.22;;;;;;;6.19;91.04;62637.69;5064523;28;20228;-79
2021/12/02 10:06:32;;;;;;;6.57;5.35;;;;;;;6.36;89.45;62655.22;5062981;28;20226;-78
2021/12/02 10:09:10;;;;;;;5.38;4.72;;;;;;;6.19;87.52;62635.16;5064868;28;20280;-79
2021/12/02 10:11:44;;;;;;;8.15;4.75;;;;;;;6.27;85.45;62645.41;5061155;28;20201;-78
2021/12/02 10:14:18;;;;;;;9.02;4.72;;;;;;;6.35;87.17;62651.63;5066169;28;20259;-79
2021/12/02 10:16:48;;;;;;;5.22;4.72;;;;;;;6.45;87.60;62658.91;5064638;28;20367;-79
2021/12/02 10:19:18;;;;;;;7.78;4.72;;;;;;;6.50;84.63;62666.59;5064790;28;20300;-80
2021/12/02 10:21:52;;;;;;;5.18;3.70;;;;;;;6.49;82.84;62660.53;5063581;28;20197;-78
2021/12/02 10:24:23;;;;;;;5.75;4.50;;;;;;;6.54;80.97;62670.72;5065315;28;20233;-78
2021/12/02 10:26:53;;;;;;;5.20;4.07;;;;;;;6.68;82.06;62690.22;5063151;28;20313;-78
2021/12/02 10:29:22;;;;;;;5.15;4.63;;;;;;;6.67;83.89;62686.66;5067300;28;20271;-79
2021/12/02 10:32:06;;;;;;;6.50;4.25;;;;;;;6.87;81.80;62707.28;5067311;28;20201;-78
2021/12/02 10:34:47;;;;;;;6.75;6.15;;;;;;;7.00;81.39;62721.22;5051112;28;20197;-79
2021/12/02 10:37:14;;;;;;;8.32;4.80;;;;;;;7.03;80.99;62724.31;5061156;28;20528;-80
2021/12/02 10:39:41;;;;;;;5.28;4.85;;;;;;;6.84;79.15;62701.66;5068861;28;20244;-79
2021/12/02 10:42:11;;;;;;;6.65;4.88;;;;;;;6.96;80.98;62716.56;5068244;28;20427;-78
2021/12/02 10:44:41;;;;;;;5.38;4.88;;;;;;;6.97;79.86;62717.59;5078640;28;20263;-79
2021/12/02 10:47:11;;;;;;;6.35;4.63;;;;;;;7.01;78.51;62724.78;5067582;28;20224;-79
2021/12/02 10:49:42;;;;;;;10.00;5.20;;;;;;;6.98;78.19;62718.63;5066298;28;20211;-79
2021/12/02 10:52:14;;;;;;;11.05;6.38;;;;;;;7.08;79.00;62728.94;5083075;28;20205;-78
2021/12/02 10:54:43;;;;;;;19.75;8.25;;;;;;;7.09;77.64;62732.53;5071473;28;20268;-79
2021/12/02 10:57:12;;;;;;;7.38;4.63;;;;;;;6.99;76.44;62719.66;5061372;28;20206;-79
2021/12/02 10:59:43;;;;;;;11.60;5.72;;;;;;;6.91;78.20;62708.88;5074884;28;20551;-79
2021/12/02 11:02:22;;;;;;;13.27;7.93;;;;;;;6.89;80.60;62707.34;5075722;28;20248;-79
2021/12/02 11:04:53;;;;;;;14.55;6.07;;;;;;;6.79;79.88;62693.97;5054536;28;20205;-78
2021/12/02 11:07:25;;;;;;;13.50;5.47;;;;;;;6.62;77.90;62676.44;5062431;28;20240;-78
2021/12/02 11:09:53;;;;;;;6.57;4.82;;;;;;;6.50;82.18;62669.13;5065107;28;20197;-78
2021/12/02 11:12:23;;;;;;;7.25;5.78;;;;;;;6.41;79.62;62657.31;5066319;28;20273;-79
2021/12/02 11:15:12;;;;;;;6.40;5.50;;;;;;;6.47;82.50;62660.97;5064237;28;20193;-79
2021/12/02 11:17:49;;;;;;;7.22;5.43;;;;;;;6.50;80.19;62667.13;5064978;28;20231;-79
2021/12/02 11:20:20;;;;;;;93.72;52.97;;;;;;;6.67;85.03;62686.66;5065832;28;20389;-78
2021/12/02 11:22:47;;;;;;;9.80;7.38;;;;;;;6.77;83.70;62694.44;5066292;28;20318;-78
2021/12/02 11:25:14;;;;;;;7.88;6.03;;;;;;;6.88;81.50;62706.31;5063969;28;20286;-78
2021/12/02 11:27:43;;;;;;;8.38;6.05;;;;;;;6.98;82.86;62716.63;5062247;28;20248;-77
2021/12/02 11:30:16;;;;;;;10.85;6.05;;;;;;;7.01;79.94;62719.72;5061946;28;20197;-78
2021/12/02 11:32:58;;;;;;;10.75;5.85;;;;;;;6.73;78.77;62690.81;5065491;28;20225;-79
2021/12/02 11:35:32;;;;;;;7.70;5.25;;;;;;;6.85;81.98;62703.19;5063018;28;20209;-78
2021/12/02 11:38:04;;;;;;;11.57;6.22;;;;;;;6.93;81.11;62716.00;5062590;28;20228;-77
2021/12/02 11:40:35;;;;;;;6.35;5.65;;;;;;;7.04;82.42;62719.75;5065276;28;20251;-79